createdAt,value
2023-09-06T00:00:35.136Z,94708.22
2023-09-06T00:03:02.055Z,94717.91
2023-09-06T00:05:31.287Z,94714.75
2023-09-06T00:07:58.089Z,94698.66
2023-09-06T00:10:24.872Z,94685.41
2023-09-06T00:12:51.693Z,94714.31
2023-09-06T00:15:20.053Z,94689.44
2023-09-06T00:17:46.877Z,94718.44
2023-09-06T00:20:23.112Z,94712.03
2023-09-06T00:23:01.181Z,94725.03
2023-09-06T00:25:29.054Z,94726.16
2023-09-06T00:27:57.260Z,94725.28
2023-09-06T00:30:24.144Z,94712.56
2023-09-06T00:32:54.425Z,94724.59
2023-09-06T00:35:27.422Z,94710.47
2023-09-06T00:37:55.254Z,94716.41
2023-09-06T00:40:23.063Z,94711.63
2023-09-06T00:42:51.461Z,94712.75
2023-09-06T00:45:23.065Z,94683.81
2023-09-06T00:47:56.559Z,94702.66
2023-09-06T00:50:24.442Z,94704.13
2023-09-06T00:52:53.174Z,94675.25
2023-09-06T00:55:21.396Z,94704.22
2023-09-06T00:57:49.206Z,94691.13
2023-09-06T01:00:19.037Z,94697.06
2023-09-06T01:02:46.993Z,94698.88
2023-09-06T01:05:15.410Z,94687.19
2023-09-06T01:07:47.122Z,94697.16
2023-09-06T01:10:13.924Z,94682.59
2023-09-06T01:12:40.812Z,94671.19
2023-09-06T01:15:08.040Z,94687.75
2023-09-06T01:17:38.994Z,94692.91
2023-09-06T01:20:17.531Z,94687.41
2023-09-06T01:23:22.818Z,94685.91
2023-09-06T01:25:51.031Z,94686.59
2023-09-06T01:28:18.319Z,94685.72
2023-09-06T01:30:45.161Z,94681.38
2023-09-06T01:33:11.960Z,94679.88
2023-09-06T01:35:38.710Z,94673.69
2023-09-06T01:38:05.467Z,94650.63
2023-09-06T01:40:32.174Z,94677.28
2023-09-06T01:42:59.996Z,94656.16
2023-09-06T01:45:30.467Z,94664.81
2023-09-06T01:47:57.327Z,94667.94
2023-09-06T01:50:24.135Z,94669.09
2023-09-06T01:52:50.892Z,94662.88
2023-09-06T01:55:17.891Z,94659.59
2023-09-06T01:57:45.276Z,94663.88
2023-09-06T02:00:33.084Z,94665.00
2023-09-06T02:03:01.067Z,94650.25
2023-09-06T02:05:28.028Z,94662.34
2023-09-06T02:07:54.772Z,94665.59
2023-09-06T02:10:22.630Z,94667.16
2023-09-06T02:12:49.398Z,94651.75
2023-09-06T02:15:16.365Z,94655.22
2023-09-06T02:17:44.759Z,94659.41
2023-09-06T02:20:21.253Z,94661.34
2023-09-06T02:22:53.110Z,94668.56
2023-09-06T02:25:23.562Z,94664.53
2023-09-06T02:27:50.821Z,94661.16
2023-09-06T02:30:20.847Z,94668.81
2023-09-06T02:32:49.297Z,94657.41
2023-09-06T02:35:16.659Z,94674.50
2023-09-06T02:37:43.472Z,94673.38
2023-09-06T02:40:13.938Z,94673.19
2023-09-06T02:42:42.204Z,94683.78
2023-09-06T02:45:13.349Z,94684.22
2023-09-06T02:47:52.012Z,94671.44
2023-09-06T02:50:24.666Z,94660.34
2023-09-06T02:52:54.540Z,94675.59
2023-09-06T02:55:22.273Z,94677.66
2023-09-06T02:57:50.855Z,94671.13
2023-09-06T03:00:27.677Z,94685.53
2023-09-06T03:02:55.603Z,94679.47
2023-09-06T03:05:23.807Z,94679.47
2023-09-06T03:07:50.782Z,94674.06
2023-09-06T03:10:21.248Z,94669.47
2023-09-06T03:12:55.619Z,94684.19
2023-09-06T03:15:29.950Z,94685.56
2023-09-06T03:18:01.598Z,94694.59
2023-09-06T03:20:43.981Z,94689.66
2023-09-06T03:23:19.500Z,94681.41
2023-09-06T03:25:56.724Z,94693.13
2023-09-06T03:28:29.779Z,94682.13
2023-09-06T03:31:00.801Z,94684.16
2023-09-06T03:33:29.620Z,94684.59
2023-09-06T03:35:57.739Z,94685.06
2023-09-06T03:38:27.808Z,94681.94
2023-09-06T03:40:57.126Z,94678.91
2023-09-06T03:43:32.319Z,94682.34
2023-09-06T03:46:28.896Z,94682.47
2023-09-06T03:48:56.150Z,94678.06
2023-09-06T03:51:22.995Z,94668.16
2023-09-06T03:53:50.705Z,94672.97
2023-09-06T03:56:17.472Z,94675.66
2023-09-06T03:58:48.583Z,94669.50
2023-09-06T04:01:17.177Z,94675.22
2023-09-06T04:03:47.789Z,94675.56
2023-09-06T04:06:17.803Z,94677.25
2023-09-06T04:08:46.414Z,94671.28
2023-09-06T04:11:15.035Z,94683.66
2023-09-06T04:13:44.021Z,94682.88
2023-09-06T04:16:11.033Z,94682.09
2023-09-06T04:18:39.341Z,94691.97
2023-09-06T04:21:10.181Z,94693.34
2023-09-06T04:23:40.862Z,94695.72
2023-09-06T04:26:10.003Z,94691.25
2023-09-06T04:28:37.527Z,94686.19
2023-09-06T04:31:06.206Z,94691.38
2023-09-06T04:33:37.898Z,94686.84
2023-09-06T04:36:13.055Z,94682.69
2023-09-06T04:38:39.858Z,94690.69
2023-09-06T04:41:09.109Z,94682.34
2023-09-06T04:43:42.060Z,94682.25
2023-09-06T04:46:09.562Z,94693.09
2023-09-06T04:48:41.371Z,94696.81
2023-09-06T04:51:09.221Z,94687.25
2023-09-06T04:53:36.860Z,94693.19
2023-09-06T04:56:05.500Z,94687.56
2023-09-06T04:58:50.258Z,94697.22
2023-09-06T05:01:17.093Z,94701.50
2023-09-06T05:03:44.151Z,94704.06
2023-09-06T05:06:13.109Z,94696.56
2023-09-06T05:08:39.863Z,94695.59
2023-09-06T05:11:17.063Z,94697.59
2023-09-06T05:13:45.868Z,94704.56
2023-09-06T05:16:12.785Z,94702.75
2023-09-06T05:18:40.620Z,94699.59
2023-09-06T05:21:07.451Z,94692.19
2023-09-06T05:23:37.588Z,94697.88
2023-09-06T05:26:05.150Z,94699.34
2023-09-06T05:28:43.827Z,94701.59
2023-09-06T05:31:11.283Z,94699.84
2023-09-06T05:33:40.431Z,94687.97
2023-09-06T05:36:10.281Z,94705.06
2023-09-06T05:38:37.705Z,94704.59
2023-09-06T05:41:05.311Z,94713.41
2023-09-06T05:43:36.080Z,94713.28
2023-09-06T05:46:07.359Z,94707.16
2023-09-06T05:48:42.430Z,94716.63
2023-09-06T05:51:09.372Z,94719.41
2023-09-06T05:53:36.256Z,94720.22
2023-09-06T05:56:06.107Z,94719.34
2023-09-06T05:58:39.086Z,94720.97
2023-09-06T06:01:10.359Z,94735.38
2023-09-06T06:03:39.403Z,94727.06
2023-09-06T06:06:12.082Z,94729.50
2023-09-06T06:08:39.229Z,94728.63
2023-09-06T06:11:06.298Z,94735.53
2023-09-06T06:13:33.468Z,94728.78
2023-09-06T06:16:00.276Z,94731.66
2023-09-06T06:18:27.824Z,94724.94
2023-09-06T06:20:56.009Z,94736.56
2023-09-06T06:23:22.894Z,94732.00
2023-09-06T06:25:49.658Z,94733.66
2023-09-06T06:28:16.990Z,94743.97
2023-09-06T06:30:44.042Z,94746.38
2023-09-06T06:33:11.024Z,94742.63
2023-09-06T06:35:38.152Z,94740.00
2023-09-06T06:38:05.742Z,94750.28
2023-09-06T06:40:37.261Z,94745.50
2023-09-06T06:43:04.275Z,94753.56
2023-09-06T06:45:31.024Z,94749.72
2023-09-06T06:47:57.905Z,94755.28
2023-09-06T06:50:25.293Z,94750.22
2023-09-06T06:52:52.708Z,94748.16
2023-09-06T06:55:19.730Z,94742.72
2023-09-06T06:57:46.655Z,94750.41
2023-09-06T07:00:13.742Z,94754.34
2023-09-06T07:02:40.638Z,94744.38
2023-09-06T07:05:07.794Z,94749.59
2023-09-06T07:07:34.612Z,94754.06
2023-09-06T07:10:01.520Z,94760.97
2023-09-06T07:12:28.294Z,94762.78
2023-09-06T07:14:55.366Z,94756.59
2023-09-06T07:17:22.344Z,94757.28
2023-09-06T07:19:49.195Z,94748.28
2023-09-06T07:22:16.191Z,94757.28
2023-09-06T07:24:42.957Z,94760.72
2023-09-06T07:27:09.785Z,94759.91
2023-09-06T07:29:36.582Z,94755.06
2023-09-06T07:32:04.496Z,94762.25
2023-09-06T07:34:31.853Z,94758.16
2023-09-06T07:36:58.660Z,94762.03
2023-09-06T07:39:25.368Z,94766.22
2023-09-06T07:41:53.355Z,94760.03
2023-09-06T07:44:20.686Z,94769.59
2023-09-06T07:46:50.156Z,94772.59
2023-09-06T07:49:17.743Z,94772.31
2023-09-06T07:51:44.689Z,94767.13
2023-09-06T07:54:12.253Z,94761.50
2023-09-06T07:56:40.546Z,94766.75
2023-09-06T07:59:10.346Z,94762.63
2023-09-06T08:01:37.145Z,94765.00
2023-09-06T08:04:04.114Z,94764.88
2023-09-06T08:06:31.243Z,94771.31
2023-09-06T08:08:59.586Z,94771.69
2023-09-06T08:11:26.688Z,94775.00
2023-09-06T08:13:53.425Z,94773.03
2023-09-06T08:16:20.601Z,94767.97
2023-09-06T08:18:48.324Z,94772.13
2023-09-06T08:21:17.230Z,94776.47
2023-09-06T08:23:44.903Z,94781.41
2023-09-06T08:26:12.912Z,94781.03
2023-09-06T08:28:39.852Z,94788.06
2023-09-06T08:31:07.430Z,94784.94
2023-09-06T08:33:34.970Z,94780.22
2023-09-06T08:36:02.184Z,94791.31
2023-09-06T08:38:29.613Z,94792.13
2023-09-06T08:40:56.601Z,94789.09
2023-09-06T08:43:24.733Z,94791.66
2023-09-06T08:45:52.473Z,94785.81
2023-09-06T08:48:19.566Z,94791.06
2023-09-06T08:50:47.096Z,94776.75
2023-09-06T08:53:16.406Z,94792.66
2023-09-06T08:55:45.086Z,94792.63
2023-09-06T08:58:12.323Z,94794.97
2023-09-06T09:00:40.752Z,94801.31
2023-09-06T09:03:08.228Z,94797.84
2023-09-06T09:05:35.080Z,94793.59
2023-09-06T09:08:02.695Z,94789.66
2023-09-06T09:10:33.697Z,94799.00
2023-09-06T09:13:01.929Z,94793.56
2023-09-06T09:15:34.141Z,94785.78
2023-09-06T09:18:10.916Z,94787.31
2023-09-06T09:20:41.627Z,94781.84
2023-09-06T09:23:15.858Z,94791.22
2023-09-06T09:25:52.555Z,94788.50
2023-09-06T09:28:19.494Z,94780.22
2023-09-06T09:30:47.905Z,94789.06
2023-09-06T09:33:15.535Z,94787.97
2023-09-06T09:35:42.631Z,94790.03
2023-09-06T09:38:12.515Z,94786.50
2023-09-06T09:43:09.128Z,94781.31
2023-09-06T09:45:45.480Z,94785.25
2023-09-06T09:48:12.861Z,94777.03
2023-09-06T09:50:42.849Z,94779.03
2023-09-06T09:53:21.365Z,94784.03
2023-09-06T09:56:05.670Z,94780.28
2023-09-06T09:58:35.180Z,94781.19
2023-09-06T10:01:04.943Z,94778.78
2023-09-06T10:03:37.372Z,94784.38
2023-09-06T10:06:05.525Z,94769.53
2023-09-06T10:08:36.601Z,94780.19
2023-09-06T10:11:07.606Z,94781.84
2023-09-06T10:13:37.365Z,94774.84
2023-09-06T10:16:05.327Z,94778.97
2023-09-06T10:18:33.396Z,94774.88
2023-09-06T10:21:03.897Z,94770.91
2023-09-06T10:23:32.735Z,94783.47
2023-09-06T10:26:01.812Z,94770.00
2023-09-06T10:28:33.504Z,94780.22
2023-09-06T10:31:09.304Z,94774.72
2023-09-06T10:33:43.455Z,94778.66
2023-09-06T10:36:13.836Z,94781.56
2023-09-06T10:38:53.563Z,94786.34
2023-09-06T10:41:21.954Z,94777.31
2023-09-06T10:44:04.668Z,94778.28
2023-09-06T10:46:36.476Z,94776.94
2023-09-06T10:49:30.640Z,94781.78
2023-09-06T10:52:02.940Z,94783.44
2023-09-06T10:54:43.618Z,94779.38
2023-09-06T10:57:15.535Z,94771.41
2023-09-06T10:59:47.026Z,94769.56
2023-09-06T11:02:27.044Z,94764.44
2023-09-06T11:05:31.473Z,94765.63
2023-09-06T11:07:58.607Z,94761.75
2023-09-06T11:10:26.552Z,94758.91
2023-09-06T11:12:57.274Z,94760.69
2023-09-06T11:15:25.420Z,94760.97
2023-09-06T11:17:59.761Z,94754.13
2023-09-06T11:20:27.450Z,94762.00
2023-09-06T11:22:57.419Z,94749.16
2023-09-06T11:25:26.394Z,94754.69
2023-09-06T11:27:59.440Z,94751.31
2023-09-06T11:30:28.170Z,94750.59
2023-09-06T11:32:56.612Z,94748.88
2023-09-06T11:35:29.026Z,94746.03
2023-09-06T11:37:57.606Z,94744.78
2023-09-06T11:40:29.413Z,94755.56
2023-09-06T11:43:00.841Z,94747.31
2023-09-06T11:45:28.299Z,94748.38
2023-09-06T11:47:57.981Z,94744.06
2023-09-06T11:50:25.561Z,94743.97
2023-09-06T11:52:58.974Z,94740.06
2023-09-06T11:55:29.878Z,94738.56
2023-09-06T11:57:59.186Z,94732.16
2023-09-06T12:00:47.429Z,94728.75
2023-09-06T12:03:15.200Z,94727.97
2023-09-06T12:05:49.911Z,94727.31
2023-09-06T12:08:21.273Z,94730.56
2023-09-06T12:10:51.939Z,94725.94
2023-09-06T12:13:18.860Z,94724.13
2023-09-06T12:15:46.107Z,94737.19
2023-09-06T12:18:14.844Z,94736.94
2023-09-06T12:20:41.870Z,94722.47
2023-09-06T12:23:09.604Z,94732.59
2023-09-06T12:25:36.446Z,94727.38
2023-09-06T12:28:04.255Z,94724.72
2023-09-06T12:30:31.400Z,94727.97
2023-09-06T12:32:58.212Z,94726.41
2023-09-06T12:35:25.709Z,94720.34
2023-09-06T12:37:52.564Z,94724.56
2023-09-06T12:40:22.364Z,94716.28
2023-09-06T12:42:49.473Z,94721.94
2023-09-06T12:45:29.162Z,94713.50
2023-09-06T12:47:58.251Z,94716.84
2023-09-06T12:50:26.191Z,94712.81
2023-09-06T12:52:54.141Z,94714.22
2023-09-06T12:55:22.127Z,94719.88
2023-09-06T12:57:50.960Z,94705.16
2023-09-06T13:00:17.917Z,94709.41
2023-09-06T13:02:44.744Z,94705.00
2023-09-06T13:05:11.862Z,94706.03
2023-09-06T13:07:38.933Z,94704.00
2023-09-06T13:10:06.956Z,94691.03
2023-09-06T13:12:34.317Z,94699.34
2023-09-06T13:15:01.523Z,94693.09
2023-09-06T13:17:28.462Z,94690.06
2023-09-06T13:19:56.115Z,94685.69
2023-09-06T13:22:23.183Z,94681.13
2023-09-06T13:24:50.184Z,94685.69
2023-09-06T13:27:17.095Z,94674.19
2023-09-06T13:29:43.966Z,94684.09
2023-09-06T13:32:11.100Z,94678.56
2023-09-06T13:34:38.097Z,94679.19
2023-09-06T13:37:05.732Z,94670.66
2023-09-06T13:39:33.346Z,94678.47
2023-09-06T13:42:02.082Z,94677.47
2023-09-06T13:44:32.803Z,94674.44
2023-09-06T13:46:59.682Z,94667.91
2023-09-06T13:49:27.317Z,94674.09
2023-09-06T13:51:54.754Z,94668.63
2023-09-06T13:54:22.302Z,94663.06
2023-09-06T13:56:52.288Z,94663.69
2023-09-06T13:59:19.689Z,94665.53
2023-09-06T14:01:46.530Z,94657.63
2023-09-06T14:04:13.539Z,94659.56
2023-09-06T14:06:40.482Z,94659.28
2023-09-06T14:09:09.412Z,94654.94
2023-09-06T14:11:36.300Z,94658.53
2023-09-06T14:14:05.573Z,94655.84
2023-09-06T14:16:35.185Z,94653.25
2023-09-06T14:19:02.069Z,94660.00
2023-09-06T14:21:29.129Z,94657.13
2023-09-06T14:23:55.991Z,94664.31
2023-09-06T14:26:22.868Z,94663.53
2023-09-06T14:28:49.842Z,94663.53
2023-09-06T14:31:17.631Z,94663.16
2023-09-06T14:33:44.555Z,94661.91
2023-09-06T14:36:11.383Z,94656.44
2023-09-06T14:38:38.234Z,94654.78
2023-09-06T14:41:05.045Z,94658.53
2023-09-06T14:43:32.236Z,94647.31
2023-09-06T14:46:07.389Z,94654.31
2023-09-06T14:48:34.908Z,94654.50
2023-09-06T14:51:02.989Z,94649.56
2023-09-06T14:53:30.155Z,94651.75
2023-09-06T14:56:01.238Z,94649.63
2023-09-06T14:58:28.967Z,94643.34
2023-09-06T15:00:56.456Z,94654.13
2023-09-06T15:03:26.510Z,94647.59
2023-09-06T15:05:53.390Z,94648.72
2023-09-06T15:08:20.591Z,94645.50
2023-09-06T15:10:47.400Z,94644.06
2023-09-06T15:13:14.262Z,94635.53
2023-09-06T15:15:41.871Z,94638.91
2023-09-06T15:18:08.842Z,94642.84
2023-09-06T15:20:37.832Z,94644.88
2023-09-06T15:23:29.482Z,94648.66
2023-09-06T15:25:56.483Z,94641.56
2023-09-06T15:28:23.315Z,94644.69
2023-09-06T15:30:50.634Z,94634.38
2023-09-06T15:33:17.597Z,94643.03
2023-09-06T15:35:44.306Z,94637.03
2023-09-06T15:38:13.042Z,94638.09
2023-09-06T15:40:39.929Z,94634.38
2023-09-06T15:43:06.829Z,94638.94
2023-09-06T15:45:34.179Z,94621.88
2023-09-06T15:48:01.218Z,94630.44
2023-09-06T15:50:29.853Z,94622.25
2023-09-06T15:52:56.993Z,94625.09
2023-09-06T15:55:24.162Z,94628.31
2023-09-06T15:57:52.153Z,94625.31
2023-09-06T16:00:31.537Z,94627.03
2023-09-06T16:03:00.856Z,94634.50
2023-09-06T16:05:28.221Z,94630.75
2023-09-06T16:07:55.181Z,94625.03
2023-09-06T16:10:21.937Z,94629.72
2023-09-06T16:12:50.067Z,94631.78
2023-09-06T16:15:26.034Z,94628.00
2023-09-06T16:17:53.743Z,94626.09
2023-09-06T16:20:20.845Z,94620.66
2023-09-06T16:22:47.704Z,94626.22
2023-09-06T16:25:14.559Z,94632.13
2023-09-06T16:27:41.375Z,94630.22
2023-09-06T16:30:09.713Z,94626.41
2023-09-06T16:32:37.065Z,94634.72
2023-09-06T16:35:08.931Z,94629.31
2023-09-06T16:37:37.178Z,94621.56
2023-09-06T16:40:04.367Z,94631.34
2023-09-06T16:42:31.896Z,94618.50
2023-09-06T16:44:58.607Z,94624.41
2023-09-06T16:47:25.323Z,94622.06
2023-09-06T16:49:52.818Z,94619.84
2023-09-06T16:52:19.610Z,94628.53
2023-09-06T16:54:46.441Z,94628.97
2023-09-06T16:57:13.163Z,94630.56
2023-09-06T16:59:39.906Z,94634.97
2023-09-06T17:02:07.126Z,94629.13
2023-09-06T17:04:33.987Z,94628.44
2023-09-06T17:07:00.686Z,94630.06
2023-09-06T17:09:29.350Z,94630.09
2023-09-06T17:11:56.102Z,94630.94
2023-09-06T17:14:22.974Z,94633.34
2023-09-06T17:16:49.762Z,94634.53
2023-09-06T17:19:16.648Z,94629.94
2023-09-06T17:21:43.331Z,94629.63
2023-09-06T17:24:10.354Z,94640.19
2023-09-06T17:26:38.230Z,94630.03
2023-09-06T17:29:09.911Z,94636.72
2023-09-06T17:31:37.194Z,94639.50
2023-09-06T17:34:04.138Z,94640.34
2023-09-06T17:36:30.892Z,94641.53
2023-09-06T17:38:57.779Z,94639.63
2023-09-06T17:41:24.913Z,94636.94
2023-09-06T17:43:52.217Z,94640.47
2023-09-06T17:46:25.684Z,94637.38
2023-09-06T17:48:56.787Z,94635.84
2023-09-06T17:51:24.063Z,94644.06
2023-09-06T17:53:51.886Z,94642.94
2023-09-06T17:56:21.260Z,94641.00
2023-09-06T17:58:50.951Z,94643.34
2023-09-06T18:01:20.262Z,94645.31
2023-09-06T18:03:52.338Z,94644.56
2023-09-06T18:06:26.935Z,94657.81
2023-09-06T18:08:58.386Z,94649.25
2023-09-06T18:11:25.777Z,94651.16
2023-09-06T18:13:52.983Z,94654.63
2023-09-06T18:16:21.001Z,94652.31
2023-09-06T18:18:49.872Z,94660.88
2023-09-06T18:21:17.899Z,94657.75
2023-09-06T18:23:46.205Z,94663.56
2023-09-06T18:26:13.575Z,94662.41
2023-09-06T18:28:41.090Z,94660.81
2023-09-06T18:31:09.050Z,94671.34
2023-09-06T18:33:38.113Z,94660.75
2023-09-06T18:36:10.096Z,94673.59
2023-09-06T18:38:38.406Z,94675.50
2023-09-06T18:41:11.127Z,94671.56
2023-09-06T18:43:39.404Z,94674.63
2023-09-06T18:46:07.349Z,94678.13
2023-09-06T18:48:39.702Z,94677.69
2023-09-06T18:51:08.242Z,94673.72
2023-09-06T18:53:38.623Z,94682.59
2023-09-06T18:56:08.716Z,94681.75
2023-09-06T18:58:37.416Z,94675.47
2023-09-06T19:01:12.375Z,94674.22
2023-09-06T19:03:39.483Z,94675.78
2023-09-06T19:06:06.542Z,94673.44
2023-09-06T19:08:33.887Z,94682.41
2023-09-06T19:11:02.312Z,94674.25
2023-09-06T19:13:29.975Z,94685.19
2023-09-06T19:15:58.693Z,94689.88
2023-09-06T19:18:25.621Z,94684.44
2023-09-06T19:20:52.645Z,94680.56
2023-09-06T19:23:21.969Z,94676.31
2023-09-06T19:25:55.859Z,94686.06
2023-09-06T19:28:23.897Z,94681.75
2023-09-06T19:30:58.291Z,94682.94
2023-09-06T19:33:26.593Z,94678.66
2023-09-06T19:35:54.886Z,94682.56
2023-09-06T19:38:23.451Z,94680.25
2023-09-06T19:40:53.211Z,94689.59
2023-09-06T19:43:20.657Z,94682.22
2023-09-06T19:45:52.899Z,94680.28
2023-09-06T19:48:19.768Z,94674.03
2023-09-06T19:50:47.881Z,94672.47
2023-09-06T19:53:14.764Z,94669.72
2023-09-06T19:55:41.555Z,94672.84
2023-09-06T19:58:08.419Z,94665.78
2023-09-06T20:00:35.273Z,94670.81
2023-09-06T20:03:02.178Z,94677.28
2023-09-06T20:05:29.074Z,94668.72
2023-09-06T20:07:55.818Z,94672.59
2023-09-06T20:10:23.918Z,94668.63
2023-09-06T20:12:50.704Z,94662.78
2023-09-06T20:15:17.476Z,94669.00
2023-09-06T20:17:44.418Z,94667.47
2023-09-06T20:20:11.372Z,94668.63
2023-09-06T20:22:38.188Z,94672.13
2023-09-06T20:25:06.396Z,94669.03
2023-09-06T20:27:33.137Z,94662.44
2023-09-06T20:30:00.019Z,94671.38
2023-09-06T20:32:26.998Z,94665.13
2023-09-06T20:34:53.814Z,94671.72
2023-09-06T20:37:20.491Z,94671.72
2023-09-06T20:39:47.199Z,94673.25
2023-09-06T20:42:13.889Z,94679.41
2023-09-06T20:44:40.662Z,94677.44
2023-09-06T20:47:07.450Z,94673.13
2023-09-06T20:49:34.205Z,94675.44
2023-09-06T20:52:00.979Z,94671.53
2023-09-06T20:54:27.812Z,94675.44
2023-09-06T20:56:54.537Z,94677.78
2023-09-06T20:59:21.297Z,94676.22
2023-09-06T21:01:48.201Z,94675.03
2023-09-06T21:04:15.134Z,94680.47
2023-09-06T21:06:42.053Z,94681.22
2023-09-06T21:09:11.560Z,94674.56
2023-09-06T21:11:39.212Z,94680.00
2023-09-06T21:14:06.010Z,94677.63
2023-09-06T21:16:32.700Z,94675.22
2023-09-06T21:18:59.862Z,94676.66
2023-09-06T21:21:26.770Z,94683.59
2023-09-06T21:23:53.733Z,94676.44
2023-09-06T21:26:21.097Z,94669.81
2023-09-06T21:28:48.109Z,94683.81
2023-09-06T21:31:14.865Z,94669.41
2023-09-06T21:33:41.812Z,94680.69
2023-09-06T21:36:08.984Z,94678.81
2023-09-06T21:38:36.624Z,94675.34
2023-09-06T21:41:03.493Z,94679.63
2023-09-06T21:43:30.395Z,94681.22
2023-09-06T21:45:57.207Z,94681.56
2023-09-06T21:48:25.369Z,94679.53
2023-09-06T21:51:07.530Z,94673.69
2023-09-06T21:53:34.735Z,94682.53
2023-09-06T21:56:01.703Z,94685.63
2023-09-06T21:58:29.535Z,94681.44
2023-09-06T22:01:15.299Z,94683.88
2023-09-06T22:04:01.096Z,94675.72
2023-09-06T22:06:46.628Z,94684.34
2023-09-06T22:09:32.052Z,94678.06
2023-09-06T22:12:17.591Z,94676.13
2023-09-06T22:14:46.089Z,94679.28
2023-09-06T22:17:13.377Z,94682.81
2023-09-06T22:19:40.348Z,94684.00
2023-09-06T22:22:07.161Z,94672.28
2023-09-06T22:24:34.309Z,94674.19
2023-09-06T22:27:01.094Z,94669.38
2023-09-06T22:29:28.166Z,94674.31
2023-09-06T22:31:54.968Z,94675.44
2023-09-06T22:34:22.756Z,94677.63
2023-09-06T22:36:49.668Z,94680.72
2023-09-06T22:39:16.491Z,94674.75
2023-09-06T22:41:43.398Z,94679.00
2023-09-06T22:44:10.099Z,94678.94
2023-09-06T22:46:36.938Z,94673.50
2023-09-06T22:49:04.066Z,94675.13
2023-09-06T22:51:31.068Z,94681.06
2023-09-06T22:53:57.847Z,94679.22
2023-09-06T22:56:24.732Z,94676.50
2023-09-06T22:58:51.439Z,94679.31
2023-09-06T23:01:18.556Z,94678.53
2023-09-06T23:03:45.750Z,94673.09
2023-09-06T23:06:13.681Z,94684.72
2023-09-06T23:08:45.155Z,94680.88
2023-09-06T23:11:13.045Z,94678.88
2023-09-06T23:13:40.502Z,94681.97
2023-09-06T23:16:08.455Z,94673.00
2023-09-06T23:18:40.030Z,94676.84
2023-09-06T23:21:09.379Z,94676.06
2023-09-06T23:23:39.462Z,94668.69
2023-09-06T23:26:09.271Z,94669.84
2023-09-06T23:28:36.307Z,94675.59
2023-09-06T23:31:06.917Z,94679.03
2023-09-06T23:33:49.070Z,94679.81
2023-09-06T23:36:17.654Z,94675.91
2023-09-06T23:38:49.320Z,94675.91
2023-09-06T23:41:18.570Z,94675.97
2023-09-06T23:43:45.642Z,94673.56
2023-09-06T23:46:12.805Z,94667.34
2023-09-06T23:48:39.624Z,94664.94
2023-09-06T23:51:06.420Z,94666.06
2023-09-06T23:53:33.201Z,94662.16
2023-09-06T23:56:04.484Z,94663.25
2023-09-06T23:58:31.601Z,94656.94
